createdAt,value
2023-02-01T00:01:48.801Z,0.90
2023-02-01T00:04:15.732Z,1.40
2023-02-01T00:06:42.504Z,0.70
2023-02-01T00:09:09.304Z,0.60
2023-02-01T00:11:36.087Z,1.07
2023-02-01T00:14:03.130Z,0.70
2023-02-01T00:16:31.186Z,0.80
2023-02-01T00:19:01.283Z,1.00
2023-02-01T00:21:28.598Z,0.70
2023-02-01T00:23:55.852Z,0.80
2023-02-01T00:26:43.964Z,0.57
2023-02-01T00:29:19.684Z,0.80
2023-02-01T00:31:46.852Z,0.70
2023-02-01T00:34:17.280Z,0.50
2023-02-01T00:36:45.092Z,0.60
2023-02-01T00:39:12.701Z,1.00
2023-02-01T00:41:41.342Z,0.50
2023-02-01T00:44:08.372Z,0.83
2023-02-01T00:46:53.885Z,0.70
2023-02-01T00:49:21.095Z,1.00
2023-02-01T00:51:48.501Z,0.50
2023-02-01T00:54:15.260Z,1.13
2023-02-01T00:56:42.167Z,0.90
2023-02-01T00:59:12.397Z,0.63
2023-02-01T01:01:40.057Z,0.63
2023-02-01T01:04:06.945Z,0.50
2023-02-01T01:06:35.604Z,0.50
2023-02-01T01:09:06.723Z,0.60
2023-02-01T01:11:37.298Z,1.03
2023-02-01T01:14:07.685Z,0.40
2023-02-01T01:16:35.947Z,0.60
2023-02-01T01:19:03.824Z,0.67
2023-02-01T01:21:31.269Z,0.53
2023-02-01T01:24:16.609Z,1.07
2023-02-01T01:26:43.432Z,0.60
2023-02-01T01:29:12.061Z,0.83
2023-02-01T01:31:38.878Z,1.00
2023-02-01T01:34:05.919Z,0.87
2023-02-01T01:36:32.953Z,2.07
2023-02-01T01:38:59.795Z,0.87
2023-02-01T01:41:31.762Z,0.80
2023-02-01T01:44:05.852Z,0.70
2023-02-01T01:46:35.621Z,0.90
2023-02-01T01:49:12.514Z,0.80
2023-02-01T01:51:55.593Z,0.90
2023-02-01T01:54:31.348Z,0.83
2023-02-01T01:57:02.659Z,1.10
2023-02-01T01:59:32.237Z,1.33
2023-02-01T02:01:59.377Z,0.97
2023-02-01T02:04:26.577Z,1.40
2023-02-01T02:07:00.823Z,0.90
2023-02-01T02:09:27.755Z,1.27
2023-02-01T02:11:54.607Z,1.27
2023-02-01T02:14:24.476Z,0.70
2023-02-01T02:16:56.371Z,1.33
2023-02-01T02:19:54.433Z,0.70
2023-02-01T02:22:40.958Z,0.47
2023-02-01T02:25:28.891Z,0.40
2023-02-01T02:29:11.795Z,0.87
2023-02-01T02:31:59.964Z,0.40
2023-02-01T02:34:41.200Z,0.30
2023-02-01T02:37:07.957Z,0.30
2023-02-01T02:39:41.165Z,0.53
2023-02-01T02:42:35.489Z,0.27
2023-02-01T02:45:37.740Z,0.40
2023-02-01T02:48:07.457Z,0.33
2023-02-01T02:51:34.611Z,0.50
2023-02-01T02:54:26.145Z,0.93
2023-02-01T02:57:16.465Z,0.60
2023-02-01T03:00:04.288Z,0.53
2023-02-01T03:02:53.232Z,1.17
2023-02-01T03:05:21.842Z,0.83
2023-02-01T03:08:02.548Z,0.80
2023-02-01T03:10:54.301Z,0.53
2023-02-01T03:13:42.380Z,0.80
2023-02-01T03:16:32.813Z,0.63
2023-02-01T03:19:07.116Z,0.83
2023-02-01T03:21:42.352Z,0.60
2023-02-01T03:24:35.559Z,0.50
2023-02-01T03:27:11.647Z,0.20
2023-02-01T03:29:45.455Z,0.30
2023-02-01T03:32:12.339Z,0.30
2023-02-01T03:34:57.606Z,0.20
2023-02-01T03:37:28.983Z,0.30
2023-02-01T03:40:06.336Z,0.20
2023-02-01T03:42:42.982Z,0.37
2023-02-01T03:45:34.710Z,0.30
2023-02-01T03:48:02.941Z,0.30
2023-02-01T03:50:32.800Z,0.10
2023-02-01T03:53:04.910Z,0.30
2023-02-01T03:55:33.671Z,0.30
2023-02-01T03:58:17.213Z,0.90
2023-02-01T04:00:54.169Z,0.33
2023-02-01T04:03:40.013Z,0.50
2023-02-01T04:06:07.142Z,0.30
2023-02-01T04:08:34.076Z,0.60
2023-02-01T04:11:00.851Z,0.30
2023-02-01T04:13:46.547Z,0.50
2023-02-01T04:16:13.323Z,0.30
2023-02-01T04:18:40.220Z,0.20
2023-02-01T04:21:07.090Z,0.30
2023-02-01T04:23:33.904Z,0.20
2023-02-01T04:26:05.270Z,0.40
2023-02-01T04:28:32.785Z,0.10
2023-02-01T04:30:59.968Z,0.30
2023-02-01T04:33:45.528Z,0.40
2023-02-01T04:36:12.359Z,0.30
2023-02-01T04:38:39.075Z,0.33
2023-02-01T04:41:05.907Z,0.40
2023-02-01T04:43:32.656Z,0.40
2023-02-01T04:46:18.054Z,0.20
2023-02-01T04:48:44.888Z,0.20
2023-02-01T04:51:13.611Z,0.10
2023-02-01T04:53:40.380Z,0.20
2023-02-01T04:56:07.510Z,0.30
2023-02-01T04:58:34.320Z,0.20
2023-02-01T05:01:05.623Z,0.47
2023-02-01T05:03:55.154Z,0.30
2023-02-01T05:06:22.141Z,0.23
2023-02-01T05:08:48.909Z,0.30
2023-02-01T05:11:34.755Z,0.60
2023-02-01T05:14:02.639Z,1.00
2023-02-01T05:16:29.563Z,0.50
2023-02-01T05:21:40.459Z,0.60
2023-02-01T05:24:13.904Z,0.60
2023-02-01T05:26:42.144Z,0.57
2023-02-01T05:29:10.590Z,0.77
2023-02-01T05:31:37.853Z,0.50
2023-02-01T05:34:05.365Z,0.47
2023-02-01T05:36:32.582Z,0.83
2023-02-01T05:38:59.473Z,0.53
2023-02-01T05:41:26.355Z,0.60
2023-02-01T05:43:53.237Z,0.90
2023-02-01T05:46:20.666Z,0.80
2023-02-01T05:48:47.505Z,0.93
2023-02-01T05:51:14.318Z,0.80
2023-02-01T05:53:41.243Z,1.37
2023-02-01T05:56:08.249Z,1.03
2023-02-01T05:58:35.236Z,0.70
2023-02-01T06:01:03.330Z,0.97
2023-02-01T06:03:30.474Z,0.90
2023-02-01T06:05:57.315Z,1.00
2023-02-01T06:08:26.688Z,1.30
2023-02-01T06:11:05.672Z,1.03
2023-02-01T06:13:34.734Z,0.83
2023-02-01T06:16:04.107Z,0.83
2023-02-01T06:18:31.691Z,1.53
2023-02-01T06:21:01.672Z,1.70
2023-02-01T06:23:29.755Z,1.43
2023-02-01T06:26:05.558Z,1.67
2023-02-01T06:28:33.560Z,1.37
2023-02-01T06:31:07.606Z,1.27
2023-02-01T06:33:36.007Z,2.10
2023-02-01T06:36:22.319Z,1.87
2023-02-01T06:38:49.251Z,1.83
2023-02-01T06:41:16.534Z,1.40
2023-02-01T06:43:44.563Z,1.60
2023-02-01T06:46:13.927Z,1.20
2023-02-01T06:48:40.789Z,1.73
2023-02-01T06:51:07.694Z,1.63
2023-02-01T06:56:20.336Z,1.83
2023-02-01T06:58:47.160Z,1.77
2023-02-01T07:01:15.067Z,2.50
2023-02-01T07:03:41.952Z,1.57
2023-02-01T07:06:10.046Z,1.93
2023-02-01T07:08:38.665Z,2.13
2023-02-01T07:11:07.913Z,2.57
2023-02-01T07:13:35.513Z,1.77
2023-02-01T07:16:04.141Z,1.90
2023-02-01T07:18:31.673Z,1.60
2023-02-01T07:20:59.588Z,1.77
2023-02-01T07:23:27.154Z,2.33
2023-02-01T07:25:58.637Z,1.63
2023-02-01T07:28:26.371Z,2.13
2023-02-01T07:30:53.391Z,1.90
2023-02-01T07:33:22.470Z,2.07
2023-02-01T07:35:50.820Z,2.70
2023-02-01T07:38:18.371Z,1.80
2023-02-01T07:40:45.363Z,1.93
2023-02-01T07:43:12.117Z,2.23
2023-02-01T07:45:39.008Z,2.10
2023-02-01T07:48:05.746Z,2.27
2023-02-01T07:50:32.782Z,3.03
2023-02-01T07:53:01.816Z,2.40
2023-02-01T07:55:28.795Z,1.63
2023-02-01T07:57:59.283Z,1.90
2023-02-01T08:00:45.692Z,3.03
2023-02-01T08:05:56.968Z,1.53
2023-02-01T08:08:24.521Z,1.50
2023-02-01T08:10:51.979Z,1.17
2023-02-01T08:13:18.787Z,1.20
2023-02-01T08:15:45.530Z,1.20
2023-02-01T08:18:12.522Z,1.93
2023-02-01T08:20:42.444Z,1.10
2023-02-01T08:23:10.087Z,1.50
2023-02-01T08:25:37.211Z,1.87
2023-02-01T08:28:04.497Z,1.63
2023-02-01T08:30:31.362Z,1.77
2023-02-01T08:32:58.855Z,1.33
2023-02-01T08:35:37.960Z,1.57
2023-02-01T08:38:09.557Z,1.73
2023-02-01T08:40:36.311Z,1.93
2023-02-01T08:43:03.107Z,2.93
2023-02-01T08:45:33.273Z,1.60
2023-02-01T08:48:38.158Z,1.10
2023-02-01T08:51:07.619Z,1.43
2023-02-01T08:53:54.219Z,1.37
2023-02-01T08:56:21.666Z,1.87
2023-02-01T08:58:48.384Z,1.77
2023-02-01T09:01:35.360Z,1.67
2023-02-01T09:04:02.173Z,1.20
2023-02-01T09:06:29.041Z,1.23
2023-02-01T09:08:56.656Z,2.13
2023-02-01T09:11:23.403Z,2.17
2023-02-01T09:13:50.366Z,1.57
2023-02-01T09:16:18.284Z,1.63
2023-02-01T09:19:26.379Z,1.97
2023-02-01T09:21:51.148Z,2.33
2023-02-01T09:24:18.364Z,1.43
2023-02-01T09:26:45.537Z,1.40
2023-02-01T09:29:12.419Z,1.30
2023-02-01T09:31:44.201Z,1.97
2023-02-01T09:34:16.667Z,1.80
2023-02-01T09:36:43.390Z,2.30
2023-02-01T09:39:10.128Z,1.83
2023-02-01T09:41:40.645Z,1.13
2023-02-01T09:44:22.330Z,1.60
2023-02-01T09:46:52.309Z,1.77
2023-02-01T09:49:25.120Z,1.73
2023-02-01T09:51:54.177Z,1.77
2023-02-01T09:54:25.082Z,1.50
2023-02-01T09:57:06.108Z,1.47
2023-02-01T09:59:36.006Z,1.93
2023-02-01T10:02:06.232Z,1.47
2023-02-01T10:04:55.068Z,2.13
2023-02-01T10:08:05.833Z,1.37
2023-02-01T10:10:50.601Z,1.30
2023-02-01T10:13:57.142Z,1.43
2023-02-01T10:16:44.854Z,2.00
2023-02-01T10:19:27.337Z,1.87
2023-02-01T10:22:06.783Z,1.40
2023-02-01T10:24:33.474Z,2.43
2023-02-01T10:27:13.296Z,1.50
2023-02-01T10:29:43.321Z,1.70
2023-02-01T10:32:23.744Z,1.80
2023-02-01T10:34:58.841Z,1.37
2023-02-01T10:37:34.183Z,1.70
2023-02-01T10:40:12.920Z,1.40
2023-02-01T10:42:40.781Z,1.53
2023-02-01T10:45:08.430Z,1.87
2023-02-01T10:47:35.234Z,2.43
2023-02-01T10:50:15.866Z,1.47
2023-02-01T10:52:49.836Z,1.80
2023-02-01T10:55:47.228Z,1.70
2023-02-01T10:58:33.795Z,2.37
2023-02-01T11:01:07.185Z,1.60
2023-02-01T11:03:41.036Z,1.50
2023-02-01T11:06:24.551Z,1.00
2023-02-01T11:08:54.479Z,1.00
2023-02-01T11:11:22.428Z,1.90
2023-02-01T11:13:58.711Z,1.53
2023-02-01T11:16:56.655Z,1.93
2023-02-01T11:19:23.400Z,1.33
2023-02-01T11:21:55.838Z,0.83
2023-02-01T11:27:26.549Z,1.40
2023-02-01T11:30:02.648Z,1.57
2023-02-01T11:32:29.869Z,1.47
2023-02-01T11:35:07.938Z,1.47
2023-02-01T11:37:38.394Z,1.80
2023-02-01T11:40:27.410Z,1.47
2023-02-01T11:42:57.314Z,2.13
2023-02-01T11:45:54.366Z,1.97
2023-02-01T11:48:26.710Z,1.13
2023-02-01T11:51:35.141Z,1.20
2023-02-01T11:54:31.519Z,1.30
2023-02-01T11:57:25.979Z,1.10
2023-02-01T12:00:06.785Z,1.50
2023-02-01T12:03:13.358Z,1.10
2023-02-01T12:05:49.155Z,1.33
2023-02-01T12:08:18.684Z,1.47
2023-02-01T12:10:54.896Z,1.30
2023-02-01T12:13:24.258Z,1.80
2023-02-01T12:16:12.702Z,1.27
2023-02-01T12:18:49.725Z,1.60
2023-02-01T12:21:38.817Z,1.90
2023-02-01T12:24:42.747Z,1.30
2023-02-01T12:27:18.380Z,1.47
2023-02-01T12:30:11.486Z,1.40
2023-02-01T12:32:46.191Z,1.30
2023-02-01T12:35:37.545Z,1.17
2023-02-01T12:38:28.592Z,1.80
2023-02-01T12:41:14.733Z,1.03
2023-02-01T12:43:55.837Z,1.87
2023-02-01T12:46:30.971Z,1.20
2023-02-01T12:49:03.547Z,1.73
2023-02-01T12:51:38.236Z,1.40
2023-02-01T12:54:14.876Z,1.70
2023-02-01T12:56:50.738Z,1.43
2023-02-01T12:59:23.304Z,2.07
2023-02-01T13:02:11.005Z,1.10
2023-02-01T13:04:51.084Z,1.33
2023-02-01T13:07:27.896Z,1.80
2023-02-01T13:10:22.356Z,1.83
2023-02-01T13:13:31.083Z,1.33
2023-02-01T13:16:08.320Z,1.87
2023-02-01T13:18:44.060Z,1.77
2023-02-01T13:21:30.109Z,1.50
2023-02-01T13:23:57.265Z,1.50
2023-02-01T13:26:24.039Z,2.03
2023-02-01T13:29:01.387Z,1.23
2023-02-01T13:31:56.223Z,1.30
2023-02-01T13:34:48.378Z,1.50
2023-02-01T13:37:48.598Z,1.50
2023-02-01T13:40:50.073Z,1.13
2023-02-01T13:43:30.158Z,1.67
2023-02-01T13:46:06.915Z,1.87
2023-02-01T13:48:53.654Z,1.33
2023-02-01T13:51:37.837Z,1.20
2023-02-01T13:54:06.393Z,0.97
2023-02-01T13:56:42.282Z,1.07
2023-02-01T13:59:37.469Z,0.83
2023-02-01T14:02:41.404Z,0.90
2023-02-01T14:05:13.600Z,1.20
2023-02-01T14:08:05.527Z,0.90
2023-02-01T14:10:51.579Z,1.40
2023-02-01T14:13:41.879Z,1.33
2023-02-01T14:16:21.356Z,1.10
2023-02-01T14:18:58.718Z,1.20
2023-02-01T14:21:34.238Z,1.10
2023-02-01T14:26:50.588Z,1.10
2023-02-01T14:29:21.234Z,1.60
2023-02-01T14:32:31.594Z,1.73
2023-02-01T14:35:01.680Z,1.17
2023-02-01T14:37:33.613Z,1.40
2023-02-01T14:40:16.539Z,1.43
2023-02-01T14:42:43.439Z,1.40
2023-02-01T14:45:26.117Z,0.90
2023-02-01T14:47:53.420Z,1.77
2023-02-01T14:50:41.349Z,0.80
2023-02-01T14:53:11.269Z,1.63
2023-02-01T14:55:44.012Z,1.80
2023-02-01T14:58:53.567Z,1.03
2023-02-01T15:01:31.582Z,1.20
2023-02-01T15:04:01.477Z,1.33
2023-02-01T15:06:28.217Z,1.30
2023-02-01T15:09:17.553Z,1.93
2023-02-01T15:12:01.224Z,1.30
2023-02-01T15:14:32.253Z,1.23
2023-02-01T15:16:59.064Z,1.60
2023-02-01T15:19:28.136Z,1.60
2023-02-01T15:21:57.222Z,1.67
2023-02-01T15:24:26.314Z,1.57
2023-02-01T15:26:55.100Z,1.40
2023-02-01T15:29:26.566Z,1.37
2023-02-01T15:31:53.876Z,1.80
2023-02-01T15:34:21.744Z,1.33
2023-02-01T15:37:07.119Z,2.00
2023-02-01T15:39:35.675Z,2.57
2023-02-01T15:42:12.647Z,1.83
2023-02-01T15:44:42.041Z,2.57
2023-02-01T15:47:17.399Z,1.67
2023-02-01T15:49:48.541Z,1.83
2023-02-01T15:52:40.160Z,2.50
2023-02-01T15:55:21.806Z,2.10
2023-02-01T15:57:50.028Z,4.77
2023-02-01T16:00:24.893Z,2.70
2023-02-01T16:03:00.650Z,1.43
2023-02-01T16:05:36.731Z,2.13
2023-02-01T16:08:25.257Z,2.97
2023-02-01T16:11:00.338Z,1.90
2023-02-01T16:13:27.316Z,2.60
2023-02-01T16:15:54.339Z,1.60
2023-02-01T16:18:21.170Z,1.60
2023-02-01T16:20:48.990Z,1.77
2023-02-01T16:23:15.817Z,1.30
2023-02-01T16:25:42.707Z,1.80
2023-02-01T16:28:09.509Z,2.50
2023-02-01T16:30:36.614Z,1.30
2023-02-01T16:35:49.437Z,1.80
2023-02-01T16:38:22.252Z,1.90
2023-02-01T16:40:50.736Z,2.20
2023-02-01T16:43:25.439Z,1.67
2023-02-01T16:45:54.509Z,2.07
2023-02-01T16:48:31.675Z,1.90
2023-02-01T16:51:02.372Z,2.10
2023-02-01T16:53:33.028Z,2.17
2023-02-01T16:56:13.662Z,2.47
2023-02-01T16:58:42.239Z,2.67
2023-02-01T17:01:09.155Z,1.90
2023-02-01T17:03:36.041Z,3.30
2023-02-01T17:06:03.347Z,2.83
2023-02-01T17:08:35.483Z,3.53
2023-02-01T17:11:03.973Z,2.43
2023-02-01T17:13:30.965Z,2.30
2023-02-01T17:16:01.988Z,1.90
2023-02-01T17:18:32.861Z,1.80
2023-02-01T17:21:00.351Z,1.97
2023-02-01T17:26:13.401Z,4.17
2023-02-01T17:28:40.140Z,2.67
2023-02-01T17:31:07.081Z,2.33
2023-02-01T17:33:37.878Z,2.10
2023-02-01T17:36:06.984Z,1.40
2023-02-01T17:38:37.699Z,2.80
2023-02-01T17:41:05.462Z,3.83
2023-02-01T17:43:32.388Z,2.97
2023-02-01T17:46:04.033Z,4.93
2023-02-01T17:48:30.877Z,1.60
2023-02-01T17:51:00.514Z,1.50
2023-02-01T17:53:29.491Z,1.20
2023-02-01T17:55:58.463Z,2.27
2023-02-01T17:58:26.710Z,1.27
2023-02-01T18:00:54.419Z,6.80
2023-02-01T18:03:30.295Z,2.63
2023-02-01T18:05:58.185Z,2.63
2023-02-01T18:08:28.227Z,2.00
2023-02-01T18:10:59.895Z,1.60
2023-02-01T18:13:45.267Z,2.03
2023-02-01T18:16:38.535Z,1.63
2023-02-01T18:19:05.386Z,1.10
2023-02-01T18:21:43.250Z,1.00
2023-02-01T18:24:14.601Z,1.47
2023-02-01T18:26:42.587Z,0.97
2023-02-01T18:29:09.496Z,2.00
2023-02-01T18:31:44.663Z,1.27
2023-02-01T18:34:30.258Z,1.83
2023-02-01T18:36:57.025Z,1.60
2023-02-01T18:39:23.819Z,1.57
2023-02-01T18:41:51.881Z,4.63
2023-02-01T18:44:19.207Z,4.57
2023-02-01T18:46:46.120Z,5.60
2023-02-01T18:49:17.937Z,7.73
2023-02-01T18:51:45.387Z,6.17
2023-02-01T18:54:30.927Z,5.57
2023-02-01T18:57:16.462Z,4.13
2023-02-01T18:59:43.376Z,5.17
2023-02-01T19:02:13.296Z,5.00
2023-02-01T19:07:43.607Z,2.83
2023-02-01T19:10:24.735Z,2.53
2023-02-01T19:12:54.560Z,3.13
2023-02-01T19:15:22.394Z,1.93
2023-02-01T19:17:51.225Z,1.70
2023-02-01T19:20:20.355Z,1.60
2023-02-01T19:22:47.619Z,1.50
2023-02-01T19:25:20.379Z,1.67
2023-02-01T19:27:48.358Z,1.60
2023-02-01T19:30:15.747Z,2.17
2023-02-01T19:33:02.648Z,2.00
2023-02-01T19:35:29.999Z,2.07
2023-02-01T19:37:57.531Z,1.83
2023-02-01T19:40:26.422Z,1.83
2023-02-01T19:42:53.677Z,1.90
2023-02-01T19:45:20.509Z,1.70
2023-02-01T19:47:47.267Z,1.67
2023-02-01T19:50:20.018Z,2.17
2023-02-01T19:52:47.077Z,2.10
2023-02-01T19:55:14.156Z,2.53
2023-02-01T19:57:41.326Z,4.13
2023-02-01T20:00:13.488Z,2.80
2023-02-01T20:02:40.554Z,3.17
2023-02-01T20:05:10.616Z,4.23
2023-02-01T20:07:37.626Z,3.83
2023-02-01T20:10:06.141Z,2.93
2023-02-01T20:12:51.242Z,3.20
2023-02-01T20:15:18.029Z,3.43
2023-02-01T20:18:03.619Z,4.43
2023-02-01T20:20:30.782Z,4.00
2023-02-01T20:22:57.669Z,4.57
2023-02-01T20:25:24.794Z,3.60
2023-02-01T20:27:52.749Z,3.60
2023-02-01T20:30:20.035Z,3.27
2023-02-01T20:32:50.746Z,2.77
2023-02-01T20:35:19.059Z,2.70
2023-02-01T20:38:04.702Z,2.40
2023-02-01T20:40:31.484Z,2.07
2023-02-01T20:42:58.776Z,2.20
2023-02-01T20:45:27.141Z,1.93
2023-02-01T20:47:54.255Z,2.13
2023-02-01T20:50:21.514Z,1.33
2023-02-01T20:52:48.332Z,1.40
2023-02-01T20:55:15.137Z,1.53
2023-02-01T20:57:42.649Z,1.50
2023-02-01T21:00:10.382Z,1.30
2023-02-01T21:02:37.528Z,1.20
2023-02-01T21:05:04.564Z,1.00
2023-02-01T21:07:31.426Z,0.80
2023-02-01T21:09:58.195Z,0.77
2023-02-01T21:15:10.102Z,1.23
2023-02-01T21:17:39.347Z,0.70
2023-02-01T21:20:08.534Z,0.80
2023-02-01T21:22:35.299Z,0.60
2023-02-01T21:25:02.360Z,0.60
2023-02-01T21:27:29.119Z,0.50
2023-02-01T21:30:14.951Z,1.10
2023-02-01T21:33:03.399Z,0.57
2023-02-01T21:35:30.580Z,0.60
2023-02-01T21:37:57.605Z,0.50
2023-02-01T21:43:08.963Z,0.53
2023-02-01T21:45:38.176Z,0.50
2023-02-01T21:48:07.077Z,0.50
2023-02-01T21:50:35.323Z,0.37
2023-02-01T21:53:02.224Z,0.57
2023-02-01T21:55:28.984Z,0.40
2023-02-01T21:57:55.833Z,0.43
2023-02-01T22:00:23.924Z,0.40
2023-02-01T22:02:50.693Z,0.40
2023-02-01T22:05:18.212Z,0.40
2023-02-01T22:07:45.002Z,0.40
2023-02-01T22:10:12.866Z,0.33
2023-02-01T22:12:39.731Z,0.47
2023-02-01T22:15:06.853Z,0.33
2023-02-01T22:17:33.694Z,0.40
2023-02-01T22:20:00.608Z,0.27
2023-02-01T22:22:27.356Z,0.40
2023-02-01T22:24:54.506Z,0.30
2023-02-01T22:27:21.322Z,0.30
2023-02-01T22:30:09.046Z,0.50
2023-02-01T22:32:35.803Z,0.30
2023-02-01T22:35:02.605Z,0.30
2023-02-01T22:37:29.345Z,0.17
2023-02-01T22:39:58.212Z,0.30
2023-02-01T22:42:25.004Z,0.23
2023-02-01T22:44:51.784Z,0.20
2023-02-01T22:47:18.540Z,0.70
2023-02-01T22:49:45.305Z,0.20
2023-02-01T22:52:12.055Z,0.30
2023-02-01T22:54:40.138Z,0.20
2023-02-01T22:57:08.058Z,0.30
2023-02-01T22:59:34.959Z,0.30
2023-02-01T23:02:01.903Z,0.37
2023-02-01T23:04:28.755Z,0.30
2023-02-01T23:06:55.508Z,0.27
2023-02-01T23:09:25.333Z,0.30
2023-02-01T23:11:53.646Z,0.40
2023-02-01T23:14:20.895Z,0.30
2023-02-01T23:16:49.819Z,0.30
2023-02-01T23:19:18.334Z,0.30
2023-02-01T23:21:45.642Z,0.47
2023-02-01T23:24:12.413Z,0.30
2023-02-01T23:26:39.704Z,0.30
2023-02-01T23:29:06.659Z,0.27
2023-02-01T23:31:35.038Z,0.30
2023-02-01T23:34:03.775Z,0.40
2023-02-01T23:36:32.968Z,0.20
2023-02-01T23:39:00.507Z,0.40
2023-02-01T23:41:29.992Z,0.30
2023-02-01T23:43:59.628Z,0.30
2023-02-01T23:46:27.946Z,0.20
2023-02-01T23:48:55.070Z,0.20
2023-02-01T23:51:23.106Z,0.30
2023-02-01T23:53:50.151Z,0.97
2023-02-01T23:56:33.362Z,0.30
2023-02-01T23:59:01.986Z,0.20
